Terminal Aerodrome Forecast
Issued by NWS

Home | Current Version | Previous Version | Text Only | Print | Product List | Glossary On
Versions: 1 2 3 4 5 6 7 8 9 10 11 12
000
FTUS42 TJSJ 011721 AAA
TAFISX
TAF AMD
TISX 011721Z 0118/0218 07007KT P6SM VCSH SCT025 SCT040
     FM012300 08009KT P6SM VCSH SCT025
     FM021300 12012KT P6SM FEW030=

USA.gov is the U.S. government's official web portal to all federal, state and local government web resources and services.